Terminal Aerodrome Forecast
Issued by NWS Nashville, TN

Home | Current Version | Previous Version | Text Only | Print | Product List | Glossary On
Versions: 1 2 3 4 5 6 7 8 9 10 11 12 13 14 15 16 17 18 19 20 21 22 23 24 25
668
FTUS44 KOHX 232133 AAE
TAFCSV
TAF AMD
KCSV 232133Z 2322/2418 VRB03KT P6SM VCSH SCT014 SCT020 BKN070
     FM240000 00000KT P6SM BKN050
     FM241200 22002KT 6SM BR VCSH BKN015
     FM241400 23005KT 4SM -SHRA OVC007=

USA.gov is the U.S. government's official web portal to all federal, state and local government web resources and services.